»·PEaware :: JBU483 KSFO-KLGB

JBU483 :: KSFO-KLGB

FLIGHT INFORMATION

Flight Status: Arrived
Operator:
JetBlue Airways
More flights by this operator :: More flights under this callsign
Pilot: Anonymous 7386 (7386)
Aircraft: AIRBUS A320
(A320)
More flights by this aircraft type
Origin: KSFO San Francisco Intl
United States
Destination: KLGB Long Beach
United States
More flights between these airports :: More routes between these airports
Route: SSTIK4 YYUNG TILLT BAUBB2
File this flight plan on PilotEdge
Remarks:
Altitude:
(Current/Filed)
37,000ft
Speed:
(Current/Filed)
450kts
Departed: 02-Jun-20 09:00 PM
Arrived: 02-Jun-20 10:06 PM
Distance/Time
Traveled:
307nm/1:05
Distance/Time
To Go:
Arrived

Flight Plot

Page will automatically refresh every two minutes.

Flight plan parsing failed; only flown route is shown


Map Options




Map Legend


Flown Route
Filed Route
Departure Airport
Arrival Airport
Navaid (VOR, NDB)
Fix

Horizontal Profiles

Position Reports

Time Latitude Longitude Heading Altitude Ground
Speed
02-Jun-20 20:18 37.611281 -122.390318 42 21ft 0kts
02-Jun-20 20:19 37.611281 -122.390318 42 21ft 0kts
02-Jun-20 20:20 37.611281 -122.390318 42 21ft 0kts
02-Jun-20 20:21 37.611281 -122.390318 42 21ft 0kts
02-Jun-20 20:22 37.611281 -122.390318 42 21ft 0kts
02-Jun-20 20:23 37.611281 -122.390318 42 21ft 0kts
02-Jun-20 20:24 37.611281 -122.390318 42 21ft 0kts
02-Jun-20 20:25 37.611281 -122.390318 42 21ft 0kts
02-Jun-20 20:26 37.611281 -122.390318 42 21ft 0kts
02-Jun-20 20:27 37.611281 -122.390318 42 21ft 0kts
02-Jun-20 20:28 37.611281 -122.390318 42 21ft 0kts
02-Jun-20 20:29 37.611281 -122.390318 42 21ft 0kts
02-Jun-20 20:30 37.611281 -122.390318 42 21ft 0kts
02-Jun-20 20:31 37.611281 -122.390318 42 21ft 0kts
02-Jun-20 20:32 37.611281 -122.390318 42 21ft 0kts
02-Jun-20 20:33 37.611281 -122.390318 42 21ft 0kts
02-Jun-20 20:34 37.611281 -122.390318 42 21ft 0kts
02-Jun-20 20:35 37.611281 -122.390318 42 21ft 0kts
02-Jun-20 20:36 37.611281 -122.390318 42 21ft 0kts
02-Jun-20 20:37 37.611280 -122.390318 42 21ft 0kts
02-Jun-20 20:38 37.611280 -122.390318 42 21ft 0kts
02-Jun-20 20:39 37.611280 -122.390318 42 21ft 0kts
02-Jun-20 20:40 37.611280 -122.390318 42 21ft 0kts
02-Jun-20 20:41 37.611280 -122.390318 42 21ft 0kts
02-Jun-20 20:42 37.611280 -122.390318 42 21ft 0kts
02-Jun-20 20:43 37.611280 -122.390318 42 21ft 0kts
02-Jun-20 20:44 37.611280 -122.390318 42 21ft 0kts
02-Jun-20 20:45 37.611280 -122.390318 42 21ft 0kts
02-Jun-20 20:46 37.611280 -122.390318 42 21ft 0kts
02-Jun-20 20:47 37.611280 -122.390318 42 21ft 0kts
02-Jun-20 20:48 37.611280 -122.390318 42 21ft 0kts
02-Jun-20 20:49 37.611280 -122.390318 42 21ft 0kts
02-Jun-20 20:50 37.611139 -122.390482 43 21ft 2kts
02-Jun-20 20:51 37.610823 -122.391078 109 21ft 2kts
02-Jun-20 20:52 37.610903 -122.391234 130 21ft 0kts
02-Jun-20 20:53 37.610903 -122.391234 130 21ft 0kts
02-Jun-20 20:54 37.610100 -122.389545 83 21ft 9kts
02-Jun-20 20:55 37.610775 -122.387099 118 21ft 6kts
02-Jun-20 20:56 37.609143 -122.384771 179 21ft 10kts
02-Jun-20 20:57 37.608486 -122.383909 117 21ft 0kts
02-Jun-20 20:58 37.608216 -122.382717 44 21ft 6kts
02-Jun-20 20:59 37.626118 -122.370669 26 425ft 172kts
02-Jun-20 21:00 37.675333 -122.359596 1 3221ft 220kts
02-Jun-20 21:01 37.714182 -122.413362 255 5987ft 270kts
02-Jun-20 21:02 37.651224 -122.454800 186 9343ft 284kts
02-Jun-20 21:03 37.568375 -122.465024 185 11552ft 331kts
02-Jun-20 21:04 37.472888 -122.477803 187 14185ft 351kts
02-Jun-20 21:05 37.375361 -122.495938 186 16761ft 361kts
02-Jun-20 21:06 37.274729 -122.514598 186 18904ft 374kts
02-Jun-20 21:07 37.168883 -122.534205 186 20640ft 393kts
02-Jun-20 21:08 37.058677 -122.554554 186 22231ft 411kts
02-Jun-20 21:09 36.950681 -122.523769 147 23670ft 414kts
02-Jun-20 21:10 36.850802 -122.449896 147 25205ft 423kts
02-Jun-20 21:11 36.748731 -122.375048 147 26642ft 431kts
02-Jun-20 21:12 36.644369 -122.298803 147 27979ft 438kts
02-Jun-20 21:13 36.538338 -122.221589 147 29180ft 445kts
02-Jun-20 21:14 36.430884 -122.143590 147 30269ft 450kts
02-Jun-20 21:15 36.324306 -122.066457 147 31917ft 439kts
02-Jun-20 21:17 36.220087 -121.991282 147 33358ft 431kts
02-Jun-20 21:18 36.117449 -121.917479 147 34561ft 426kts
02-Jun-20 21:19 36.015424 -121.842917 141 35407ft 426kts
02-Jun-20 21:20 35.938040 -121.734504 125 36219ft 422kts
02-Jun-20 21:21 35.866446 -121.620571 125 36947ft 423kts
02-Jun-20 21:22 35.794138 -121.505948 126 37050ft 423kts
02-Jun-20 21:23 35.721997 -121.391957 126 37051ft 422kts
02-Jun-20 21:24 35.650165 -121.278839 127 37052ft 422kts
02-Jun-20 21:25 35.577778 -121.165216 127 37058ft 421kts
02-Jun-20 21:26 35.503478 -121.055136 136 37075ft 422kts
02-Jun-20 21:27 35.415456 -120.959608 137 37083ft 422kts
02-Jun-20 21:28 35.327834 -120.864890 137 37086ft 421kts
02-Jun-20 21:29 35.240137 -120.770392 137 37087ft 420kts
02-Jun-20 21:30 35.152680 -120.676438 137 37081ft 419kts
02-Jun-20 21:30 35.079820 -120.598379 137 37087ft 418kts
02-Jun-20 21:32 34.970377 -120.500819 144 37089ft 419kts
02-Jun-20 21:33 34.874202 -120.422961 144 37089ft 418kts
02-Jun-20 21:34 34.778195 -120.345482 145 37094ft 417kts
02-Jun-20 21:35 34.682705 -120.268648 145 37098ft 417kts
02-Jun-20 21:35 34.600794 -120.203069 145 37099ft 416kts
02-Jun-20 21:37 34.488514 -120.113421 145 37093ft 414kts
02-Jun-20 21:37 34.408574 -120.049774 145 37033ft 413kts
02-Jun-20 21:38 34.313167 -119.973999 145 36020ft 407kts
02-Jun-20 21:40 34.203338 -119.887038 145 33222ft 407kts
02-Jun-20 21:40 34.123967 -119.824364 145 31096ft 406kts
02-Jun-20 21:41 34.054895 -119.745300 122 29866ft 386kts
02-Jun-20 21:42 33.998486 -119.632544 122 28018ft 385kts
02-Jun-20 21:43 33.943646 -119.523417 122 26190ft 372kts
02-Jun-20 21:44 33.890541 -119.417909 122 24388ft 361kts
02-Jun-20 21:45 33.839665 -119.314352 123 22594ft 350kts
02-Jun-20 21:46 33.790145 -119.213987 123 20913ft 341kts
02-Jun-20 21:47 33.742106 -119.116926 123 19164ft 331kts
02-Jun-20 21:48 33.695195 -119.022405 123 17434ft 323kts
02-Jun-20 21:49 33.649103 -118.929800 123 15744ft 318kts
02-Jun-20 21:50 33.604648 -118.840639 123 14097ft 303kts
02-Jun-20 21:51 33.567927 -118.751684 105 12497ft 299kts
02-Jun-20 21:52 33.552563 -118.655577 104 11027ft 277kts
02-Jun-20 21:53 33.538089 -118.566252 104 10133ft 270kts
02-Jun-20 21:54 33.523598 -118.477333 102 9054ft 267kts
02-Jun-20 21:55 33.519742 -118.388502 93 7801ft 264kts
02-Jun-20 21:56 33.526675 -118.305491 71 6705ft 257kts
02-Jun-20 21:57 33.551082 -118.229529 71 5776ft 230kts
02-Jun-20 21:58 33.573870 -118.158252 70 4819ft 227kts
02-Jun-20 21:59 33.596420 -118.088016 67 4117ft 225kts
02-Jun-20 22:00 33.645079 -118.042201 31 3885ft 226kts
02-Jun-20 22:01 33.700437 -118.010566 346 3008ft 224kts
02-Jun-20 22:02 33.743998 -118.061447 315 1827ft 209kts
02-Jun-20 22:03 33.780569 -118.106274 314 983ft 159kts
02-Jun-20 22:04 33.807639 -118.139078 314 198ft 131kts
02-Jun-20 22:05 33.821642 -118.154911 80 69ft 12kts
02-Jun-20 22:06 33.821629 -118.149947 90 69ft 17kts
02-Jun-20 22:07 33.821012 -118.146376 89 69ft 5kts
02-Jun-20 22:08 33.821013 -118.146082 89 69ft 0kts

Navigation Log

Ident Type
Flight plan parsing failed, navigation log unavailable